Time;durP1;ratioP1;P1;durP2;ratioP2;P2;SDS_P1;SDS_P2;PMS_P1;PMS_P2;Temp;Humidity;BMP_temperature;BMP_pressure;BME280_temperature;BME280_humidity;BME280_pressure;Samples;Min_cycle;Max_cycle;Signal;HPM_P1;HPM_P2
2021/01/12 00:02:09;;;;;;;9.87;8.30;;;3.10;99.90;;;;;;5114517;28;20216;-78
2021/01/12 00:04:36;;;;;;;9.75;7.97;;;3.20;99.90;;;;;;5114760;28;20445;-78
2021/01/12 00:07:02;;;;;;;11.40;8.50;;;3.20;99.90;;;;;;5114820;28;20192;-78
2021/01/12 00:09:28;;;;;;;12.50;8.70;;;3.20;99.90;;;;;;5114899;28;20282;-79
2021/01/12 00:11:54;;;;;;;9.38;7.90;;;3.20;99.90;;;;;;5114830;28;20216;-78
2021/01/12 00:14:33;;;;;;;12.48;8.80;;;3.20;99.90;;;;;;5114533;28;20292;-78
2021/01/12 00:17:01;;;;;;;11.07;7.90;;;3.10;99.90;;;;;;5114879;28;20183;-78
2021/01/12 00:19:27;;;;;;;11.00;8.07;;;3.10;99.90;;;;;;5114567;28;20282;-78
2021/01/12 00:21:54;;;;;;;11.02;8.15;;;3.10;99.90;;;;;;5114532;28;20328;-78
2021/01/12 00:24:20;;;;;;;11.93;9.00;;;3.10;99.90;;;;;;5112868;28;20256;-78
2021/01/12 00:26:46;;;;;;;11.30;8.55;;;3.10;99.90;;;;;;5114432;28;20275;-78
2021/01/12 00:29:13;;;;;;;10.70;7.63;;;3.10;99.90;;;;;;5111722;28;20220;-78
2021/01/12 00:31:40;;;;;;;11.82;8.27;;;3.10;99.90;;;;;;5113081;28;20215;-78
2021/01/12 00:34:06;;;;;;;11.82;8.38;;;3.20;99.90;;;;;;5107790;28;20491;-78
2021/01/12 00:36:33;;;;;;;11.40;8.15;;;3.20;99.90;;;;;;5113776;28;20211;-78
2021/01/12 00:39:00;;;;;;;11.02;7.65;;;3.20;99.90;;;;;;5113642;28;20227;-78
2021/01/12 00:41:26;;;;;;;11.57;8.15;;;3.20;99.90;;;;;;5111275;28;20739;-78
2021/01/12 00:43:52;;;;;;;11.82;8.65;;;3.20;99.90;;;;;;5112367;28;20195;-77
2021/01/12 00:46:18;;;;;;;11.10;8.10;;;3.20;99.90;;;;;;5111146;28;20192;-79
2021/01/12 00:48:44;;;;;;;11.55;8.50;;;3.20;99.90;;;;;;5109808;28;20901;-77
2021/01/12 00:51:10;;;;;;;13.85;9.27;;;3.20;99.90;;;;;;5114013;28;20194;-77
2021/01/12 00:53:36;;;;;;;12.75;8.35;;;3.20;99.90;;;;;;5114475;28;20222;-77
2021/01/12 00:56:11;;;;;;;11.65;9.52;;;3.20;99.90;;;;;;5114872;28;20216;-77
2021/01/12 00:58:37;;;;;;;12.70;8.60;;;3.30;99.90;;;;;;5113971;28;20274;-76
2021/01/12 01:01:03;;;;;;;11.98;9.30;;;3.30;99.90;;;;;;5113857;28;20272;-77
2021/01/12 01:03:29;;;;;;;16.33;8.75;;;3.20;99.90;;;;;;5113517;28;20225;-77
2021/01/12 01:05:55;;;;;;;14.43;8.98;;;3.30;99.90;;;;;;5113024;28;20215;-77
2021/01/12 01:08:21;;;;;;;13.10;9.77;;;3.20;99.90;;;;;;5113609;28;20282;-77
2021/01/12 01:10:50;;;;;;;12.50;9.53;;;3.30;99.90;;;;;;5113518;28;20199;-77
2021/01/12 01:13:17;;;;;;;12.77;9.18;;;3.40;99.90;;;;;;5113683;28;20548;-77
2021/01/12 01:15:43;;;;;;;15.60;10.35;;;3.40;99.90;;;;;;5113519;28;20804;-77
2021/01/12 01:18:09;;;;;;;9.70;8.18;;;3.30;99.90;;;;;;5113489;28;20718;-77
2021/01/12 01:20:35;;;;;;;12.77;9.50;;;3.30;99.90;;;;;;5113245;28;20226;-77
2021/01/12 01:23:01;;;;;;;14.50;9.38;;;3.30;99.90;;;;;;5111576;28;20242;-77
2021/01/12 01:25:27;;;;;;;15.70;10.15;;;3.30;99.90;;;;;;5113318;28;20210;-77
2021/01/12 01:27:53;;;;;;;11.35;9.60;;;3.30;99.90;;;;;;5113597;28;20652;-76
2021/01/12 01:30:21;;;;;;;13.10;9.90;;;3.30;99.90;;;;;;5113432;28;20226;-77
2021/01/12 01:32:47;;;;;;;11.20;8.88;;;3.30;99.90;;;;;;5113230;28;20499;-78
2021/01/12 01:35:13;;;;;;;11.70;9.25;;;3.30;99.90;;;;;;5113431;28;20220;-79
2021/01/12 01:37:39;;;;;;;12.65;9.10;;;3.30;99.90;;;;;;5113085;28;20223;-79
2021/01/12 01:40:06;;;;;;;12.18;9.57;;;3.40;99.90;;;;;;5113350;28;20615;-78
2021/01/12 01:42:32;;;;;;;11.93;9.95;;;3.40;99.90;;;;;;5113214;28;20299;-78
2021/01/12 01:44:58;;;;;;;11.82;8.68;;;3.30;99.90;;;;;;5113377;28;20195;-78
2021/01/12 01:47:25;;;;;;;13.52;9.38;;;3.40;99.90;;;;;;5113144;28;20980;-79
2021/01/12 01:49:53;;;;;;;12.13;9.18;;;3.40;99.90;;;;;;5113370;28;20605;-78
2021/01/12 01:52:20;;;;;;;11.27;9.07;;;3.40;99.90;;;;;;5113070;28;20202;-78
2021/01/12 01:54:46;;;;;;;15.95;10.05;;;3.40;99.90;;;;;;5113509;28;20191;-77
2021/01/12 01:57:12;;;;;;;14.68;9.73;;;3.40;99.90;;;;;;5113139;28;20283;-77
2021/01/12 01:59:38;;;;;;;12.75;9.80;;;3.40;99.90;;;;;;5113248;28;20246;-77
2021/01/12 02:02:06;;;;;;;13.70;10.50;;;3.30;99.90;;;;;;5112913;28;20207;-77
2021/01/12 02:04:39;;;;;;;13.70;10.43;;;3.20;99.90;;;;;;5113209;28;20586;-77
2021/01/12 02:07:07;;;;;;;12.13;9.75;;;3.20;99.90;;;;;;5113197;28;20268;-77
2021/01/12 02:09:38;;;;;;;13.88;9.13;;;3.10;99.90;;;;;;5112894;28;20255;-77
2021/01/12 02:12:11;;;;;;;12.48;9.50;;;3.00;99.90;;;;;;5113074;28;20604;-77
2021/01/12 02:14:39;;;;;;;14.98;10.95;;;2.80;99.90;;;;;;5112879;28;20195;-77
2021/01/12 02:17:07;;;;;;;14.27;10.60;;;2.60;99.90;;;;;;5114183;28;20188;-78
2021/01/12 02:19:34;;;;;;;17.42;11.43;;;2.60;99.90;;;;;;5117135;28;20270;-77
2021/01/12 02:22:03;;;;;;;16.45;11.65;;;2.50;99.90;;;;;;5117030;28;20306;-77
2021/01/12 02:24:30;;;;;;;15.25;10.38;;;2.50;99.90;;;;;;5117028;28;20195;-77
2021/01/12 02:26:56;;;;;;;16.65;12.80;;;2.50;99.90;;;;;;5116766;28;20275;-79
2021/01/12 02:29:22;;;;;;;17.10;11.40;;;2.30;99.90;;;;;;5116748;28;20188;-79
2021/01/12 02:31:50;;;;;;;17.27;12.00;;;2.30;99.90;;;;;;5116617;28;20283;-79
2021/01/12 02:34:18;;;;;;;17.20;10.80;;;2.20;99.90;;;;;;5116795;28;20279;-78
2021/01/12 02:36:45;;;;;;;13.98;10.43;;;2.30;99.90;;;;;;5116846;28;20279;-78
2021/01/12 02:39:12;;;;;;;15.90;11.48;;;2.20;99.90;;;;;;5116392;28;20268;-77
2021/01/12 02:41:40;;;;;;;15.63;12.10;;;2.20;99.90;;;;;;5116417;28;20734;-77
2021/01/12 02:44:06;;;;;;;16.45;12.25;;;2.20;99.90;;;;;;5116700;28;20188;-78
2021/01/12 02:46:32;;;;;;;18.55;12.20;;;2.10;99.90;;;;;;5116521;28;20279;-77
2021/01/12 02:49:00;;;;;;;16.30;12.18;;;2.10;99.90;;;;;;5116645;28;20283;-77
2021/01/12 02:51:26;;;;;;;17.88;12.25;;;2.10;99.90;;;;;;5097881;28;20288;-77
2021/01/12 02:53:52;;;;;;;14.63;11.98;;;2.10;99.90;;;;;;5095942;28;20287;-77
2021/01/12 02:56:22;;;;;;;21.23;13.30;;;2.10;99.90;;;;;;5095724;28;20192;-77
2021/01/12 02:58:49;;;;;;;19.45;13.00;;;2.10;99.90;;;;;;5095886;28;20451;-77
2021/01/12 03:01:15;;;;;;;20.08;13.25;;;2.10;99.90;;;;;;5095914;28;20301;-78
2021/01/12 03:03:41;;;;;;;21.45;14.73;;;2.10;99.90;;;;;;5095724;28;20649;-77
2021/01/12 03:06:08;;;;;;;23.05;14.13;;;2.00;99.90;;;;;;5095780;28;20192;-78
2021/01/12 03:08:34;;;;;;;22.27;13.45;;;2.00;99.90;;;;;;5095638;28;20231;-78
2021/01/12 03:11:00;;;;;;;18.25;13.32;;;2.00;99.90;;;;;;5095508;28;20279;-77
2021/01/12 03:13:26;;;;;;;20.15;13.77;;;2.00;99.90;;;;;;5095618;28;20283;-78
2021/01/12 03:15:53;;;;;;;21.30;13.63;;;2.10;99.90;;;;;;5095772;28;20296;-77
2021/01/12 03:18:19;;;;;;;18.23;13.50;;;2.10;99.90;;;;;;5095614;28;20279;-77
2021/01/12 03:20:45;;;;;;;22.25;15.32;;;2.10;99.90;;;;;;5095452;28;20715;-77
2021/01/12 03:23:11;;;;;;;23.63;14.97;;;2.10;99.90;;;;;;5095234;28;20219;-78
2021/01/12 03:25:37;;;;;;;26.08;14.70;;;2.10;99.90;;;;;;5100942;28;20492;-76
2021/01/12 03:28:03;;;;;;;20.52;13.73;;;2.10;99.90;;;;;;5115783;28;20218;-77
2021/01/12 03:30:29;;;;;;;21.25;14.82;;;2.20;99.90;;;;;;5115159;28;20200;-77
2021/01/12 03:32:56;;;;;;;18.70;13.75;;;2.10;99.90;;;;;;5115989;28;20508;-77
2021/01/12 03:35:22;;;;;;;24.00;14.77;;;2.10;99.90;;;;;;5115394;28;20658;-77
2021/01/12 03:37:49;;;;;;;22.52;14.68;;;2.10;99.90;;;;;;5115415;28;20278;-77
2021/01/12 03:40:15;;;;;;;19.83;13.80;;;2.10;99.90;;;;;;5115288;28;20247;-76
2021/01/12 03:42:41;;;;;;;22.45;14.57;;;2.10;99.90;;;;;;5115504;28;20293;-77
2021/01/12 03:45:08;;;;;;;20.65;14.60;;;2.20;99.90;;;;;;5115281;28;20187;-77
2021/01/12 03:47:34;;;;;;;19.42;14.95;;;2.20;99.90;;;;;;5115438;28;20324;-77
2021/01/12 03:50:01;;;;;;;21.23;15.40;;;2.20;99.90;;;;;;5115329;28;20282;-76
2021/01/12 03:52:27;;;;;;;21.38;16.10;;;2.20;99.90;;;;;;5115199;28;20646;-77
2021/01/12 03:54:53;;;;;;;25.50;16.30;;;2.20;99.90;;;;;;5115087;28;20218;-77
2021/01/12 03:57:19;;;;;;;25.52;16.50;;;2.20;99.90;;;;;;5115150;28;20606;-77
2021/01/12 03:59:45;;;;;;;21.27;15.43;;;2.20;99.90;;;;;;5115183;28;20191;-77
2021/01/12 04:02:11;;;;;;;24.58;16.38;;;2.20;99.90;;;;;;5115086;28;20215;-77
2021/01/12 04:04:37;;;;;;;33.38;17.02;;;2.30;99.90;;;;;;5114972;28;20198;-77
2021/01/12 04:07:04;;;;;;;20.98;16.58;;;2.30;99.90;;;;;;5114875;28;20282;-77
2021/01/12 04:09:30;;;;;;;22.67;16.25;;;2.20;99.90;;;;;;5115053;28;20284;-77
2021/01/12 04:11:56;;;;;;;21.20;15.18;;;2.30;99.90;;;;;;5115082;28;20622;-76
2021/01/12 04:14:22;;;;;;;21.67;16.05;;;2.20;99.90;;;;;;5114827;28;20983;-77
2021/01/12 04:16:49;;;;;;;23.50;15.82;;;2.30;99.90;;;;;;5114850;28;20283;-77
2021/01/12 04:19:15;;;;;;;24.08;16.98;;;2.30;99.90;;;;;;5114649;28;20703;-77
2021/01/12 04:21:41;;;;;;;22.17;16.20;;;2.40;99.90;;;;;;5114597;28;20279;-77
2021/01/12 04:24:08;;;;;;;21.92;14.30;;;2.30;99.90;;;;;;5114810;28;20329;-77
2021/01/12 04:26:34;;;;;;;22.13;16.70;;;2.40;99.90;;;;;;5114304;28;20279;-76
2021/01/12 04:29:00;;;;;;;22.53;17.83;;;2.40;99.90;;;;;;5114697;28;20245;-76
2021/01/12 04:31:26;;;;;;;26.65;17.42;;;2.40;99.90;;;;;;5114487;28;20887;-76
2021/01/12 04:33:52;;;;;;;20.52;14.70;;;2.40;99.90;;;;;;5114453;28;20279;-76
2021/01/12 04:36:19;;;;;;;24.15;16.30;;;2.50;99.90;;;;;;5114197;28;20287;-76
2021/01/12 04:38:45;;;;;;;25.10;16.02;;;2.40;99.90;;;;;;5114472;28;20256;-76
2021/01/12 04:41:12;;;;;;;23.17;17.27;;;2.40;99.90;;;;;;5113440;28;20635;-76
2021/01/12 04:43:38;;;;;;;21.30;16.38;;;2.40;99.90;;;;;;5114319;28;20911;-76
2021/01/12 04:46:04;;;;;;;20.42;15.70;;;2.40;99.90;;;;;;5114118;28;20184;-76
2021/01/12 04:48:30;;;;;;;27.13;16.63;;;2.40;99.90;;;;;;5114080;28;20259;-76
2021/01/12 04:51:08;;;;;;;24.57;17.50;;;2.40;99.90;;;;;;5102509;28;20196;-76
2021/01/12 04:53:39;;;;;;;26.75;17.90;;;2.40;99.90;;;;;;5093813;28;20455;-76
2021/01/12 04:56:06;;;;;;;24.17;15.88;;;2.40;99.90;;;;;;5093526;28;20679;-76
2021/01/12 04:58:44;;;;;;;23.10;17.30;;;2.40;99.90;;;;;;5093566;28;20715;-76
2021/01/12 05:01:11;;;;;;;26.45;17.50;;;2.40;99.90;;;;;;5093314;28;20291;-76
2021/01/12 05:03:41;;;;;;;21.58;16.23;;;2.40;99.90;;;;;;5093729;28;20216;-76
2021/01/12 05:06:09;;;;;;;23.38;17.15;;;2.30;99.90;;;;;;5093479;28;20612;-77
2021/01/12 05:08:35;;;;;;;23.30;17.20;;;2.40;99.90;;;;;;5093594;28;20275;-76
2021/01/12 05:11:01;;;;;;;24.10;15.87;;;2.30;99.90;;;;;;5093377;28;20547;-77
2021/01/12 05:13:30;;;;;;;25.92;16.02;;;2.40;99.90;;;;;;5093380;28;20460;-77
2021/01/12 05:16:05;;;;;;;22.83;17.75;;;2.40;99.90;;;;;;5093064;28;20200;-77
2021/01/12 05:18:36;;;;;;;25.42;17.45;;;2.40;99.90;;;;;;5093102;28;20655;-77
2021/01/12 05:21:04;;;;;;;26.17;17.88;;;2.40;99.90;;;;;;5093282;28;20193;-77
2021/01/12 05:23:34;;;;;;;24.38;17.17;;;2.30;99.90;;;;;;5093113;28;20248;-77
2021/01/12 05:26:04;;;;;;;22.85;17.00;;;2.40;99.90;;;;;;5101924;28;20290;-76
2021/01/12 05:28:32;;;;;;;23.05;17.50;;;2.40;99.90;;;;;;5113607;28;20283;-77
2021/01/12 05:31:00;;;;;;;23.25;16.52;;;2.40;99.90;;;;;;5113380;28;20275;-77
2021/01/12 05:33:28;;;;;;;24.80;17.67;;;2.40;99.90;;;;;;5113579;28;20202;-77
2021/01/12 05:35:56;;;;;;;23.45;16.73;;;2.50;99.90;;;;;;5113328;28;20275;-77
2021/01/12 05:38:28;;;;;;;20.42;16.65;;;2.50;99.90;;;;;;5113425;28;20278;-77
2021/01/12 05:40:55;;;;;;;21.50;16.48;;;2.50;99.90;;;;;;5112750;28;20219;-76
2021/01/12 05:43:31;;;;;;;22.80;17.20;;;2.50;99.90;;;;;;5113279;28;20215;-77
2021/01/12 05:46:06;;;;;;;28.30;17.70;;;2.40;99.90;;;;;;5113391;28;20279;-76
2021/01/12 05:48:34;;;;;;;23.92;16.95;;;2.40;99.90;;;;;;5113419;28;20272;-77
2021/01/12 05:51:03;;;;;;;24.90;16.73;;;2.40;99.90;;;;;;5113152;28;20194;-77
2021/01/12 05:53:41;;;;;;;21.92;16.17;;;2.40;99.90;;;;;;5112601;28;20654;-77
2021/01/12 05:56:11;;;;;;;21.50;16.25;;;2.50;99.90;;;;;;5113226;28;20774;-76
2021/01/12 05:58:47;;;;;;;23.38;17.27;;;2.50;99.90;;;;;;5113245;28;20238;-76
2021/01/12 06:01:24;;;;;;;22.15;16.77;;;2.50;99.90;;;;;;5113190;28;20218;-76
2021/01/12 06:03:52;;;;;;;23.27;17.13;;;2.50;99.90;;;;;;5113021;28;20627;-76
2021/01/12 06:06:19;;;;;;;25.52;17.10;;;2.50;99.90;;;;;;5113181;28;20305;-77
2021/01/12 06:08:49;;;;;;;24.50;18.23;;;2.50;99.90;;;;;;5113139;28;20283;-77
2021/01/12 06:11:18;;;;;;;23.63;17.52;;;2.50;99.90;;;;;;5112934;28;20197;-77
2021/01/12 06:13:53;;;;;;;25.65;17.05;;;2.50;99.90;;;;;;5113047;28;20219;-78
2021/01/12 06:16:23;;;;;;;25.42;17.63;;;2.50;99.90;;;;;;5112852;28;20191;-78
2021/01/12 06:19:05;;;;;;;20.33;16.00;;;2.60;99.90;;;;;;5111716;28;20744;-78
2021/01/12 06:21:34;;;;;;;23.00;16.33;;;2.60;99.90;;;;;;5113028;28;20215;-77
2021/01/12 06:24:03;;;;;;;26.25;16.80;;;2.60;99.90;;;;;;5112725;28;20216;-76
2021/01/12 06:26:30;;;;;;;21.90;16.30;;;2.60;99.90;;;;;;5112725;28;20275;-78
2021/01/12 06:28:56;;;;;;;22.58;16.20;;;2.60;99.90;;;;;;5112750;28;20291;-79
2021/01/12 06:31:23;;;;;;;21.33;17.38;;;2.70;99.90;;;;;;5112851;28;20192;-77
2021/01/12 06:33:55;;;;;;;21.67;16.35;;;2.70;99.90;;;;;;5113015;28;20742;-77
2021/01/12 06:36:26;;;;;;;21.83;15.57;;;2.70;99.90;;;;;;5112863;28;20188;-77
2021/01/12 06:38:53;;;;;;;22.40;17.15;;;2.70;99.90;;;;;;5111177;28;20188;-77
2021/01/12 06:41:21;;;;;;;20.13;16.02;;;2.70;99.90;;;;;;5112697;28;20585;-76
2021/01/12 06:43:49;;;;;;;20.98;15.75;;;2.70;99.90;;;;;;5112605;28;20310;-76
2021/01/12 06:46:16;;;;;;;23.63;17.25;;;2.70;99.90;;;;;;5111775;28;20211;-77
2021/01/12 06:48:44;;;;;;;20.85;15.45;;;2.60;99.90;;;;;;5112658;28;20248;-77
2021/01/12 06:51:10;;;;;;;19.30;15.48;;;2.60;99.90;;;;;;5100954;28;20192;-77
2021/01/12 06:53:45;;;;;;;24.88;17.52;;;2.60;99.90;;;;;;5092072;28;20283;-78
2021/01/12 06:56:11;;;;;;;23.30;17.63;;;2.60;99.90;;;;;;5106957;28;20180;-76
2021/01/12 06:58:44;;;;;;;20.45;15.65;;;2.60;99.90;;;;;;5112379;28;20280;-77
2021/01/12 07:01:21;;;;;;;25.08;16.85;;;2.70;99.90;;;;;;5112410;28;20275;-77
2021/01/12 07:03:50;;;;;;;22.98;16.38;;;2.70;99.90;;;;;;5112737;28;20773;-76
2021/01/12 07:06:25;;;;;;;20.98;16.92;;;2.70;99.90;;;;;;5115790;28;20192;-76
2021/01/12 07:08:53;;;;;;;20.90;15.57;;;2.70;99.90;;;;;;5115975;28;20187;-78
2021/01/12 07:11:21;;;;;;;18.45;15.05;;;2.70;99.90;;;;;;5115310;28;21099;-77
2021/01/12 07:13:51;;;;;;;19.67;14.95;;;2.70;99.90;;;;;;5097193;28;20196;-80
2021/01/12 07:16:17;;;;;;;20.95;14.75;;;2.70;99.90;;;;;;5112209;28;20212;-77
2021/01/12 07:18:44;;;;;;;20.08;16.02;;;2.70;99.90;;;;;;5114381;28;20271;-78
2021/01/12 07:21:13;;;;;;;19.85;16.40;;;2.70;99.90;;;;;;5114749;28;20180;-77
2021/01/12 07:23:40;;;;;;;20.38;16.02;;;2.80;99.90;;;;;;5114446;28;20208;-77
2021/01/12 07:26:08;;;;;;;18.15;14.20;;;2.80;99.90;;;;;;5115515;28;20241;-76
2021/01/12 07:28:43;;;;;;;23.30;15.95;;;2.80;99.90;;;;;;5115325;28;20620;-77
2021/01/12 07:31:09;;;;;;;17.95;14.40;;;2.80;99.90;;;;;;5095199;28;20219;-76
2021/01/12 07:33:35;;;;;;;19.90;14.40;;;2.80;99.90;;;;;;5095029;28;20195;-77
2021/01/12 07:36:01;;;;;;;17.05;13.90;;;2.80;99.90;;;;;;5094856;28;20195;-77
2021/01/12 07:38:31;;;;;;;19.17;14.23;;;2.80;99.90;;;;;;5095008;28;20283;-76
2021/01/12 07:40:58;;;;;;;17.38;14.27;;;2.80;99.90;;;;;;5094630;28;20312;-76
2021/01/12 07:43:25;;;;;;;18.17;13.93;;;2.80;99.90;;;;;;5107049;28;20352;-77
2021/01/12 07:45:53;;;;;;;16.55;13.68;;;2.80;99.90;;;;;;5096875;28;20274;-77
2021/01/12 07:48:19;;;;;;;21.42;14.93;;;2.80;99.90;;;;;;5115151;28;20333;-76
2021/01/12 07:50:47;;;;;;;19.98;14.43;;;2.80;99.90;;;;;;5114803;28;20639;-76
2021/01/12 07:53:13;;;;;;;16.60;13.32;;;2.80;99.90;;;;;;5114938;28;20267;-76
2021/01/12 07:55:41;;;;;;;16.83;13.88;;;2.80;99.90;;;;;;5115075;28;20295;-79
2021/01/12 07:58:07;;;;;;;16.08;13.05;;;2.80;99.90;;;;;;5114137;28;20607;-77
2021/01/12 08:00:34;;;;;;;18.35;13.18;;;2.80;99.90;;;;;;5113617;28;20584;-77
2021/01/12 08:03:00;;;;;;;17.75;13.30;;;2.80;99.90;;;;;;5114288;28;20265;-77
2021/01/12 08:05:26;;;;;;;15.82;12.90;;;2.80;99.90;;;;;;5114465;28;20280;-77
2021/01/12 08:08:00;;;;;;;13.30;11.88;;;2.90;99.90;;;;;;5114421;28;20321;-77
2021/01/12 08:10:26;;;;;;;15.38;12.90;;;2.90;99.90;;;;;;5114604;28;20286;-77
2021/01/12 08:13:04;;;;;;;16.80;13.25;;;2.90;99.90;;;;;;5113935;28;20278;-77
2021/01/12 08:15:30;;;;;;;16.15;11.95;;;3.00;99.90;;;;;;5114197;28;20587;-77
2021/01/12 08:17:56;;;;;;;17.50;12.68;;;3.00;99.90;;;;;;5113160;28;20802;-77
2021/01/12 08:20:23;;;;;;;16.77;12.02;;;3.00;99.90;;;;;;5112614;28;20807;-77
2021/01/12 08:22:50;;;;;;;17.08;12.20;;;3.00;99.90;;;;;;5110753;28;20322;-77
2021/01/12 08:25:16;;;;;;;13.57;11.43;;;3.00;99.90;;;;;;5102132;28;20304;-77
2021/01/12 08:27:46;;;;;;;13.50;11.05;;;3.00;99.90;;;;;;5113902;28;20192;-77
2021/01/12 08:30:17;;;;;;;15.50;12.02;;;3.00;99.90;;;;;;5114061;28;20548;-77
2021/01/12 08:32:49;;;;;;;19.08;15.13;;;3.10;99.90;;;;;;5113549;28;20284;-77
2021/01/12 08:35:17;;;;;;;14.70;12.63;;;3.10;99.90;;;;;;5113794;28;20604;-77
2021/01/12 08:37:45;;;;;;;13.85;10.13;;;3.10;99.90;;;;;;5113668;28;20275;-77
2021/01/12 08:40:15;;;;;;;12.45;10.98;;;3.10;99.90;;;;;;5113795;28;20306;-77
2021/01/12 08:42:41;;;;;;;13.43;11.00;;;3.10;99.90;;;;;;5113547;28;20302;-77
2021/01/12 08:45:14;;;;;;;12.98;10.50;;;3.10;99.90;;;;;;5113815;28;20278;-77
2021/01/12 08:47:40;;;;;;;12.15;10.82;;;3.10;99.90;;;;;;5113859;28;20329;-77
2021/01/12 08:50:08;;;;;;;13.70;11.18;;;3.10;99.90;;;;;;5113365;28;20568;-77
2021/01/12 08:52:37;;;;;;;10.85;9.75;;;3.00;99.90;;;;;;5113603;28;20279;-77
2021/01/12 08:55:14;;;;;;;10.25;9.18;;;3.10;99.90;;;;;;5113931;28;20191;-77
2021/01/12 08:57:40;;;;;;;10.77;9.60;;;3.10;99.90;;;;;;5113202;28;20678;-78
2021/01/12 09:00:11;;;;;;;11.35;9.90;;;3.10;99.90;;;;;;5113543;28;20283;-78
2021/01/12 09:02:38;;;;;;;12.18;10.10;;;3.20;99.90;;;;;;5110881;28;20295;-76
2021/01/12 09:05:07;;;;;;;12.82;8.98;;;3.20;99.90;;;;;;5113262;28;20274;-76
2021/01/12 09:07:33;;;;;;;10.63;9.45;;;3.20;99.90;;;;;;5113257;28;20639;-76
2021/01/12 09:09:59;;;;;;;10.77;9.70;;;3.30;99.90;;;;;;5113253;28;20673;-76
2021/01/12 09:12:25;;;;;;;9.80;8.80;;;3.30;99.90;;;;;;5109421;28;20286;-76
2021/01/12 09:14:52;;;;;;;12.30;9.85;;;3.30;99.90;;;;;;5112981;28;20566;-76
2021/01/12 09:17:19;;;;;;;9.93;8.50;;;3.30;99.90;;;;;;5113135;28;20199;-76
2021/01/12 09:19:50;;;;;;;9.80;8.80;;;3.40;99.90;;;;;;5113164;28;20241;-76
2021/01/12 09:22:17;;;;;;;11.38;9.82;;;3.40;99.90;;;;;;5106089;28;20282;-76
2021/01/12 09:24:51;;;;;;;11.30;8.35;;;3.40;99.90;;;;;;5113287;28;20194;-76
2021/01/12 09:27:24;;;;;;;9.98;8.52;;;3.30;99.90;;;;;;5112554;28;20224;-76
2021/01/12 09:29:50;;;;;;;8.98;8.07;;;3.30;99.90;;;;;;5112243;28;20622;-76
2021/01/12 09:32:28;;;;;;;13.63;9.27;;;3.30;99.90;;;;;;5111963;28;20199;-76
2021/01/12 09:34:55;;;;;;;9.43;8.20;;;3.40;99.90;;;;;;5111445;28;20179;-76
2021/01/12 09:37:21;;;;;;;8.90;8.02;;;3.40;99.90;;;;;;5112043;28;20184;-76
2021/01/12 09:39:52;;;;;;;8.52;7.72;;;3.40;99.90;;;;;;5109023;28;20215;-76
2021/01/12 09:42:19;;;;;;;8.70;7.85;;;3.40;99.90;;;;;;5112089;28;20188;-76
2021/01/12 09:44:46;;;;;;;8.85;7.95;;;3.40;99.90;;;;;;5112203;28;20282;-76
2021/01/12 09:47:12;;;;;;;8.65;7.85;;;3.50;99.90;;;;;;5113020;28;20271;-76
2021/01/12 09:49:38;;;;;;;7.65;6.95;;;3.50;99.90;;;;;;5112842;28;20191;-76
2021/01/12 09:52:05;;;;;;;7.20;6.43;;;3.50;99.90;;;;;;5113096;28;20559;-76
2021/01/12 09:54:33;;;;;;;8.15;6.32;;;3.50;99.90;;;;;;5112852;28;20336;-76
2021/01/12 09:56:59;;;;;;;7.72;6.97;;;3.50;99.90;;;;;;5112758;28;20199;-77
2021/01/12 09:59:25;;;;;;;8.63;7.70;;;3.50;99.90;;;;;;5112532;28;20611;-76
2021/01/12 10:01:54;;;;;;;9.05;7.85;;;3.50;99.90;;;;;;5112711;28;20722;-76
2021/01/12 10:04:20;;;;;;;7.40;6.60;;;3.50;99.90;;;;;;5112716;28;20304;-76
2021/01/12 10:06:46;;;;;;;7.10;6.40;;;3.50;99.90;;;;;;5112640;28;20195;-76
2021/01/12 10:09:13;;;;;;;8.30;7.33;;;3.50;99.90;;;;;;5112692;28;20452;-76
2021/01/12 10:11:39;;;;;;;10.18;6.97;;;3.60;99.90;;;;;;5112392;28;20528;-76
2021/01/12 10:14:05;;;;;;;7.32;6.63;;;3.60;99.90;;;;;;5112373;28;20286;-76
2021/01/12 10:16:31;;;;;;;7.80;7.10;;;3.60;99.90;;;;;;5112639;28;20238;-76
2021/01/12 10:18:57;;;;;;;6.30;5.80;;;3.50;99.90;;;;;;5112424;28;20925;-75
2021/01/12 10:21:23;;;;;;;7.43;6.73;;;3.60;99.90;;;;;;5112350;28;20446;-76
2021/01/12 10:23:49;;;;;;;7.45;6.75;;;3.60;99.90;;;;;;5112602;28;20915;-75
2021/01/12 10:26:17;;;;;;;8.60;7.80;;;3.60;99.90;;;;;;5112335;28;20180;-75
2021/01/12 10:28:43;;;;;;;7.68;6.97;;;3.60;99.90;;;;;;5112593;28;20537;-76
2021/01/12 10:31:10;;;;;;;8.63;7.07;;;3.60;99.90;;;;;;5112451;28;20224;-75
2021/01/12 10:33:36;;;;;;;7.32;6.63;;;3.60;99.90;;;;;;5112544;28;20196;-75
2021/01/12 10:36:03;;;;;;;6.90;6.30;;;3.60;99.90;;;;;;5112302;28;20224;-75
2021/01/12 10:38:29;;;;;;;8.88;7.25;;;3.60;99.90;;;;;;5112509;28;20271;-75
2021/01/12 10:40:55;;;;;;;6.00;5.40;;;3.60;99.90;;;;;;5115910;28;20319;-75
2021/01/12 10:43:22;;;;;;;7.32;6.72;;;3.60;99.90;;;;;;5116212;28;20642;-75
2021/01/12 10:45:48;;;;;;;6.30;5.80;;;3.60;99.90;;;;;;5115847;28;20850;-75
2021/01/12 10:48:14;;;;;;;8.13;7.32;;;3.60;99.90;;;;;;5115722;28;20283;-75
2021/01/12 10:50:40;;;;;;;7.00;6.30;;;3.70;99.90;;;;;;5115998;28;20223;-75
2021/01/12 10:53:06;;;;;;;6.37;5.70;;;3.70;99.90;;;;;;5116062;28;20469;-75
2021/01/12 10:55:32;;;;;;;6.93;6.30;;;3.70;99.90;;;;;;5115888;28;20441;-75
2021/01/12 10:57:58;;;;;;;6.60;5.97;;;3.60;99.90;;;;;;5116179;28;20473;-75
2021/01/12 11:00:25;;;;;;;6.10;5.60;;;3.70;99.90;;;;;;5114220;28;20442;-75
2021/01/12 11:02:52;;;;;;;6.43;5.93;;;3.70;99.90;;;;;;5112525;28;20477;-76
2021/01/12 11:05:19;;;;;;;6.95;6.35;;;3.70;99.90;;;;;;5115057;28;20795;-76
2021/01/12 11:07:45;;;;;;;8.80;6.32;;;3.80;99.90;;;;;;5114710;28;20275;-76
2021/01/12 11:10:12;;;;;;;6.25;5.65;;;3.80;99.90;;;;;;5114801;28;20180;-76
2021/01/12 11:12:38;;;;;;;12.13;6.22;;;3.90;99.90;;;;;;5115228;28;20184;-76
2021/01/12 11:15:07;;;;;;;9.15;6.00;;;3.90;99.90;;;;;;5115207;28;20184;-76
2021/01/12 11:17:34;;;;;;;6.13;5.47;;;4.00;99.90;;;;;;5114852;28;20188;-76
2021/01/12 11:20:00;;;;;;;5.15;4.75;;;4.00;99.90;;;;;;5112971;28;20237;-76
2021/01/12 11:22:29;;;;;;;5.85;5.40;;;4.00;99.90;;;;;;5114669;28;20271;-75
2021/01/12 11:24:55;;;;;;;5.72;5.20;;;4.10;99.90;;;;;;5113208;28;20890;-75
2021/01/12 11:27:21;;;;;;;5.95;5.35;;;4.20;99.90;;;;;;5111690;28;20212;-74
2021/01/12 11:29:48;;;;;;;5.80;5.28;;;4.20;99.90;;;;;;5114767;28;20613;-76
2021/01/12 11:32:14;;;;;;;4.55;4.15;;;4.30;99.90;;;;;;5115340;28;20187;-75
2021/01/12 11:34:40;;;;;;;5.25;4.85;;;4.30;99.90;;;;;;5115427;28;20286;-76
2021/01/12 11:37:10;;;;;;;5.57;5.07;;;4.30;99.90;;;;;;5115042;28;20196;-76
2021/01/12 11:39:37;;;;;;;5.38;4.35;;;4.30;99.90;;;;;;5115117;28;20223;-76
2021/01/12 11:42:05;;;;;;;4.47;4.03;;;4.20;99.90;;;;;;5115002;28;20329;-75
2021/01/12 11:44:31;;;;;;;5.20;4.80;;;4.20;99.90;;;;;;5115067;28;20379;-76
2021/01/12 11:46:57;;;;;;;7.13;4.30;;;4.20;99.90;;;;;;5115070;28;20188;-75
2021/01/12 11:49:23;;;;;;;4.70;4.30;;;4.20;99.90;;;;;;5114722;28;20188;-75
2021/01/12 11:51:51;;;;;;;4.60;4.20;;;4.30;99.90;;;;;;5114733;28;20278;-75
2021/01/12 11:54:17;;;;;;;4.75;4.35;;;4.30;99.90;;;;;;5115067;28;20207;-74
2021/01/12 11:56:49;;;;;;;4.88;4.38;;;4.30;99.90;;;;;;5114912;28;20198;-75
2021/01/12 11:59:15;;;;;;;12.23;4.88;;;4.30;99.90;;;;;;5114950;28;20566;-75
2021/01/12 12:01:42;;;;;;;5.65;5.15;;;4.30;99.90;;;;;;5114643;28;20648;-75
2021/01/12 12:04:08;;;;;;;4.68;4.28;;;4.20;99.90;;;;;;5114296;28;20216;-75
2021/01/12 12:06:34;;;;;;;4.10;3.78;;;4.20;99.90;;;;;;5114300;28;20604;-74
2021/01/12 12:09:01;;;;;;;4.65;4.35;;;4.20;99.90;;;;;;5113967;28;20282;-75
2021/01/12 12:11:27;;;;;;;5.18;4.78;;;4.20;99.90;;;;;;5114369;28;20233;-74
2021/01/12 12:13:53;;;;;;;9.07;5.70;;;4.20;99.90;;;;;;5114096;28;20287;-74
2021/01/12 12:16:19;;;;;;;6.07;5.57;;;4.20;99.90;;;;;;5114541;28;20188;-75
2021/01/12 12:18:46;;;;;;;5.20;4.78;;;4.20;99.90;;;;;;5114529;28;20188;-75
2021/01/12 12:21:14;;;;;;;5.30;4.78;;;4.20;99.90;;;;;;5114352;28;20295;-75
2021/01/12 12:23:40;;;;;;;4.63;4.22;;;4.30;99.90;;;;;;5114415;28;20220;-78
2021/01/12 12:26:09;;;;;;;5.72;5.22;;;4.30;99.90;;;;;;5114419;28;20214;-75
2021/01/12 12:28:35;;;;;;;5.88;5.38;;;4.40;99.90;;;;;;5114407;28;20342;-76
2021/01/12 12:31:01;;;;;;;5.15;4.75;;;4.40;99.90;;;;;;5113835;28;20180;-75
2021/01/12 12:33:27;;;;;;;12.55;5.70;;;4.40;99.90;;;;;;5114006;28;20192;-75
2021/01/12 12:35:53;;;;;;;5.72;5.15;;;4.40;99.90;;;;;;5114401;28;20187;-75
2021/01/12 12:38:19;;;;;;;6.35;5.80;;;4.40;99.90;;;;;;5113679;28;20679;-77
2021/01/12 12:40:45;;;;;;;8.73;5.45;;;4.40;99.90;;;;;;5113449;28;20690;-76
2021/01/12 12:43:12;;;;;;;4.65;4.25;;;4.40;99.90;;;;;;5113830;28;20298;-75
2021/01/12 12:45:38;;;;;;;5.57;5.10;;;4.50;99.90;;;;;;5113964;28;20757;-75